sensor_id;sensor_type;location;lat;lon;timestamp;pressure;altitude;pressure_sealevel;temperature;humidity
81230;BME280;70701;44.452;18.652;2023-07-13T00:00:25;98936.09;;;25.16;56.07
81230;BME280;70701;44.452;18.652;2023-07-13T00:02:53;98941.78;;;24.97;57.08
81230;BME280;70701;44.452;18.652;2023-07-13T00:05:20;98932.41;;;24.64;57.69
81230;BME280;70701;44.452;18.652;2023-07-13T00:07:46;98928.41;;;24.49;57.87
81230;BME280;70701;44.452;18.652;2023-07-13T00:10:12;98922.34;;;24.14;59.03
81230;BME280;70701;44.452;18.652;2023-07-13T00:12:38;98929.56;;;24.15;59.57
81230;BME280;70701;44.452;18.652;2023-07-13T00:15:13;98922.88;;;24.13;59.54
81230;BME280;70701;44.452;18.652;2023-07-13T00:17:39;98934.97;;;23.94;60.35
81230;BME280;70701;44.452;18.652;2023-07-13T00:20:06;98934.00;;;23.14;64.26
81230;BME280;70701;44.452;18.652;2023-07-13T00:22:32;98932.25;;;23.47;64.12
81230;BME280;70701;44.452;18.652;2023-07-13T00:24:58;98933.78;;;23.84;62.78
81230;BME280;70701;44.452;18.652;2023-07-13T00:27:24;98937.97;;;24.02;63.57
81230;BME280;70701;44.452;18.652;2023-07-13T00:29:52;98936.34;;;24.12;63.86
81230;BME280;70701;44.452;18.652;2023-07-13T00:32:18;98935.00;;;24.13;64.26
81230;BME280;70701;44.452;18.652;2023-07-13T00:34:43;98936.34;;;24.12;64.11
81230;BME280;70701;44.452;18.652;2023-07-13T00:37:09;98944.03;;;24.42;63.66
81230;BME280;70701;44.452;18.652;2023-07-13T00:39:36;98935.50;;;24.17;63.61
81230;BME280;70701;44.452;18.652;2023-07-13T00:42:03;98926.41;;;24.43;61.87
81230;BME280;70701;44.452;18.652;2023-07-13T00:44:29;98929.25;;;24.43;61.57
81230;BME280;70701;44.452;18.652;2023-07-13T00:46:54;98933.34;;;24.48;60.97
81230;BME280;70701;44.452;18.652;2023-07-13T00:49:24;98935.56;;;24.36;60.99
81230;BME280;70701;44.452;18.652;2023-07-13T00:52:03;98936.84;;;24.35;60.58
81230;BME280;70701;44.452;18.652;2023-07-13T00:54:39;98930.22;;;24.27;62.72
81230;BME280;70701;44.452;18.652;2023-07-13T00:57:12;98942.59;;;23.80;65.14
81230;BME280;70701;44.452;18.652;2023-07-13T00:59:42;98942.38;;;23.37;65.97
81230;BME280;70701;44.452;18.652;2023-07-13T01:02:09;98934.50;;;23.24;66.55
81230;BME280;70701;44.452;18.652;2023-07-13T01:04:35;98924.28;;;23.40;65.43
81230;BME280;70701;44.452;18.652;2023-07-13T01:07:00;98916.00;;;23.42;65.23
81230;BME280;70701;44.452;18.652;2023-07-13T01:09:27;98912.97;;;23.64;64.28
81230;BME280;70701;44.452;18.652;2023-07-13T01:11:53;98923.47;;;23.75;63.17
81230;BME280;70701;44.452;18.652;2023-07-13T01:14:19;98923.44;;;23.51;63.41
81230;BME280;70701;44.452;18.652;2023-07-13T01:16:46;98904.59;;;23.47;63.48
81230;BME280;70701;44.452;18.652;2023-07-13T01:19:37;98911.78;;;23.84;62.93
81230;BME280;70701;44.452;18.652;2023-07-13T01:22:10;98904.81;;;24.10;60.85
81230;BME280;70701;44.452;18.652;2023-07-13T01:24:38;98898.09;;;24.08;60.69
81230;BME280;70701;44.452;18.652;2023-07-13T01:27:05;98887.34;;;24.19;60.08
81230;BME280;70701;44.452;18.652;2023-07-13T01:29:32;98897.56;;;24.09;58.96
81230;BME280;70701;44.452;18.652;2023-07-13T01:31:58;98899.41;;;23.82;59.59
81230;BME280;70701;44.452;18.652;2023-07-13T01:34:26;98901.22;;;23.49;60.12
81230;BME280;70701;44.452;18.652;2023-07-13T01:36:53;98898.84;;;23.53;59.60
81230;BME280;70701;44.452;18.652;2023-07-13T01:39:23;98880.22;;;23.58;59.31
81230;BME280;70701;44.452;18.652;2023-07-13T01:41:50;98882.09;;;23.80;58.68
81230;BME280;70701;44.452;18.652;2023-07-13T01:44:19;98902.91;;;23.94;59.97
81230;BME280;70701;44.452;18.652;2023-07-13T01:46:45;98897.94;;;23.70;61.05
81230;BME280;70701;44.452;18.652;2023-07-13T01:49:11;98888.50;;;23.56;62.58
81230;BME280;70701;44.452;18.652;2023-07-13T01:51:37;98891.41;;;23.80;61.70
81230;BME280;70701;44.452;18.652;2023-07-13T01:54:03;98884.00;;;23.66;61.90
81230;BME280;70701;44.452;18.652;2023-07-13T01:56:28;98886.28;;;23.73;61.88
81230;BME280;70701;44.452;18.652;2023-07-13T01:58:54;98889.50;;;23.58;62.86
81230;BME280;70701;44.452;18.652;2023-07-13T02:01:20;98884.63;;;23.53;62.76
81230;BME280;70701;44.452;18.652;2023-07-13T02:03:46;98887.44;;;23.28;64.07
81230;BME280;70701;44.452;18.652;2023-07-13T02:06:12;98894.63;;;23.35;64.22
81230;BME280;70701;44.452;18.652;2023-07-13T02:08:37;98888.84;;;23.46;64.33
81230;BME280;70701;44.452;18.652;2023-07-13T02:11:03;98885.97;;;23.77;64.18
81230;BME280;70701;44.452;18.652;2023-07-13T02:13:29;98880.50;;;23.84;64.60
81230;BME280;70701;44.452;18.652;2023-07-13T02:15:55;98877.47;;;24.01;65.21
81230;BME280;70701;44.452;18.652;2023-07-13T02:18:22;98878.53;;;23.98;65.18
81230;BME280;70701;44.452;18.652;2023-07-13T02:20:47;98875.88;;;23.51;67.35
81230;BME280;70701;44.452;18.652;2023-07-13T02:23:14;98866.19;;;23.35;67.25
81230;BME280;70701;44.452;18.652;2023-07-13T02:25:39;98871.19;;;23.23;67.55
81230;BME280;70701;44.452;18.652;2023-07-13T02:28:05;98865.91;;;22.97;67.69
81230;BME280;70701;44.452;18.652;2023-07-13T02:30:31;98854.03;;;22.99;68.42
81230;BME280;70701;44.452;18.652;2023-07-13T02:32:57;98844.31;;;22.88;68.17
81230;BME280;70701;44.452;18.652;2023-07-13T02:35:23;98850.28;;;22.85;68.25
81230;BME280;70701;44.452;18.652;2023-07-13T02:37:49;98839.75;;;22.74;69.10
81230;BME280;70701;44.452;18.652;2023-07-13T02:40:15;98848.13;;;22.55;70.02
81230;BME280;70701;44.452;18.652;2023-07-13T02:42:40;98842.81;;;22.82;69.17
81230;BME280;70701;44.452;18.652;2023-07-13T02:45:08;98845.84;;;22.89;69.28
81230;BME280;70701;44.452;18.652;2023-07-13T02:47:35;98844.94;;;23.12;68.82
81230;BME280;70701;44.452;18.652;2023-07-13T02:50:02;98853.72;;;23.14;68.43
81230;BME280;70701;44.452;18.652;2023-07-13T02:52:27;98852.75;;;23.36;67.87
81230;BME280;70701;44.452;18.652;2023-07-13T02:54:53;98854.88;;;23.29;68.28
81230;BME280;70701;44.452;18.652;2023-07-13T02:57:19;98854.03;;;23.35;68.12
81230;BME280;70701;44.452;18.652;2023-07-13T02:59:46;98855.16;;;23.26;68.28
81230;BME280;70701;44.452;18.652;2023-07-13T03:02:11;98863.38;;;22.94;68.36
81230;BME280;70701;44.452;18.652;2023-07-13T03:04:38;98865.03;;;22.78;68.65
81230;BME280;70701;44.452;18.652;2023-07-13T03:07:07;98859.94;;;22.65;68.84
81230;BME280;70701;44.452;18.652;2023-07-13T03:09:35;98866.97;;;22.58;68.96
81230;BME280;70701;44.452;18.652;2023-07-13T03:12:04;98867.00;;;22.47;69.62
81230;BME280;70701;44.452;18.652;2023-07-13T03:14:32;98867.31;;;22.38;70.16
81230;BME280;70701;44.452;18.652;2023-07-13T03:16:59;98877.06;;;22.42;69.75
81230;BME280;70701;44.452;18.652;2023-07-13T03:19:28;98875.28;;;22.45;70.32
81230;BME280;70701;44.452;18.652;2023-07-13T03:21:54;98879.38;;;22.49;70.63
81230;BME280;70701;44.452;18.652;2023-07-13T03:24:20;98865.66;;;22.54;70.21
81230;BME280;70701;44.452;18.652;2023-07-13T03:26:50;98864.91;;;22.53;70.07
81230;BME280;70701;44.452;18.652;2023-07-13T03:29:17;98873.28;;;22.28;70.94
81230;BME280;70701;44.452;18.652;2023-07-13T03:31:43;98874.81;;;22.18;71.80
81230;BME280;70701;44.452;18.652;2023-07-13T03:34:09;98870.78;;;22.66;70.03
81230;BME280;70701;44.452;18.652;2023-07-13T03:36:36;98858.94;;;22.62;70.09
81230;BME280;70701;44.452;18.652;2023-07-13T03:39:05;98863.53;;;22.65;69.82
81230;BME280;70701;44.452;18.652;2023-07-13T03:41:44;98879.28;;;22.66;69.60
81230;BME280;70701;44.452;18.652;2023-07-13T03:44:12;98864.38;;;22.60;69.91
81230;BME280;70701;44.452;18.652;2023-07-13T03:46:38;98861.50;;;22.66;69.72
81230;BME280;70701;44.452;18.652;2023-07-13T03:49:04;98880.63;;;22.54;70.24
81230;BME280;70701;44.452;18.652;2023-07-13T03:51:31;98873.44;;;22.47;70.31
81230;BME280;70701;44.452;18.652;2023-07-13T03:53:57;98898.44;;;22.55;69.90
81230;BME280;70701;44.452;18.652;2023-07-13T03:56:22;98877.28;;;22.56;69.83
81230;BME280;70701;44.452;18.652;2023-07-13T03:58:50;98880.91;;;22.56;69.25
81230;BME280;70701;44.452;18.652;2023-07-13T04:01:20;98904.44;;;22.40;69.21
81230;BME280;70701;44.452;18.652;2023-07-13T04:03:47;98903.66;;;22.45;69.38
81230;BME280;70701;44.452;18.652;2023-07-13T04:06:19;98893.25;;;22.59;69.31
81230;BME280;70701;44.452;18.652;2023-07-13T04:08:54;98880.59;;;22.60;69.08
81230;BME280;70701;44.452;18.652;2023-07-13T04:11:22;98893.91;;;22.23;70.50
81230;BME280;70701;44.452;18.652;2023-07-13T04:13:49;98896.28;;;22.02;71.25
81230;BME280;70701;44.452;18.652;2023-07-13T04:16:17;98889.50;;;22.22;70.47
81230;BME280;70701;44.452;18.652;2023-07-13T04:18:44;98897.00;;;22.14;70.03
81230;BME280;70701;44.452;18.652;2023-07-13T04:21:09;98895.72;;;22.26;69.61
81230;BME280;70701;44.452;18.652;2023-07-13T04:23:37;98895.97;;;22.23;70.47
81230;BME280;70701;44.452;18.652;2023-07-13T04:26:03;98900.03;;;22.44;69.99
81230;BME280;70701;44.452;18.652;2023-07-13T04:28:29;98898.94;;;22.59;68.85
81230;BME280;70701;44.452;18.652;2023-07-13T04:30:55;98911.41;;;22.39;70.24
81230;BME280;70701;44.452;18.652;2023-07-13T04:33:22;98913.25;;;22.83;68.65
81230;BME280;70701;44.452;18.652;2023-07-13T04:35:54;98911.25;;;22.73;69.11
81230;BME280;70701;44.452;18.652;2023-07-13T04:38:24;98913.41;;;23.08;67.98
81230;BME280;70701;44.452;18.652;2023-07-13T04:40:50;98915.69;;;23.15;67.90
81230;BME280;70701;44.452;18.652;2023-07-13T04:43:17;98923.41;;;23.20;67.70
81230;BME280;70701;44.452;18.652;2023-07-13T04:45:43;98929.09;;;23.20;67.74
81230;BME280;70701;44.452;18.652;2023-07-13T04:48:09;98925.25;;;23.12;68.20
81230;BME280;70701;44.452;18.652;2023-07-13T04:50:38;98922.59;;;23.20;68.13
81230;BME280;70701;44.452;18.652;2023-07-13T04:53:04;98926.00;;;23.18;68.13
81230;BME280;70701;44.452;18.652;2023-07-13T04:55:30;98924.66;;;23.25;68.15
81230;BME280;70701;44.452;18.652;2023-07-13T04:57:57;98932.13;;;23.28;68.08
81230;BME280;70701;44.452;18.652;2023-07-13T05:00:24;98923.09;;;23.29;68.10
81230;BME280;70701;44.452;18.652;2023-07-13T05:02:50;98899.28;;;23.33;68.46
81230;BME280;70701;44.452;18.652;2023-07-13T05:05:16;98902.81;;;23.44;68.17
81230;BME280;70701;44.452;18.652;2023-07-13T05:07:42;98907.47;;;23.42;68.32
81230;BME280;70701;44.452;18.652;2023-07-13T05:10:08;98913.53;;;23.57;67.67
81230;BME280;70701;44.452;18.652;2023-07-13T05:12:34;98901.94;;;23.55;68.03
81230;BME280;70701;44.452;18.652;2023-07-13T05:15:00;98906.84;;;23.55;68.07
81230;BME280;70701;44.452;18.652;2023-07-13T05:17:27;98898.81;;;23.59;67.72
81230;BME280;70701;44.452;18.652;2023-07-13T05:19:52;98899.94;;;23.80;66.96
81230;BME280;70701;44.452;18.652;2023-07-13T05:22:18;98906.94;;;23.74;67.54
81230;BME280;70701;44.452;18.652;2023-07-13T05:24:44;98915.38;;;23.85;67.04
81230;BME280;70701;44.452;18.652;2023-07-13T05:27:09;98904.72;;;23.91;67.08
81230;BME280;70701;44.452;18.652;2023-07-13T05:29:37;98884.41;;;23.81;67.51
81230;BME280;70701;44.452;18.652;2023-07-13T05:32:02;98890.59;;;24.10;66.70
81230;BME280;70701;44.452;18.652;2023-07-13T05:34:29;98878.16;;;24.32;65.50
81230;BME280;70701;44.452;18.652;2023-07-13T05:36:54;98881.63;;;24.44;65.30
81230;BME280;70701;44.452;18.652;2023-07-13T05:39:21;98879.97;;;24.73;64.02
81230;BME280;70701;44.452;18.652;2023-07-13T05:41:48;98883.81;;;24.95;62.69
81230;BME280;70701;44.452;18.652;2023-07-13T05:44:14;98877.91;;;24.93;62.96
81230;BME280;70701;44.452;18.652;2023-07-13T05:46:40;98887.81;;;25.05;62.52
81230;BME280;70701;44.452;18.652;2023-07-13T05:49:05;98877.56;;;25.15;62.94
81230;BME280;70701;44.452;18.652;2023-07-13T05:51:31;98874.56;;;25.08;63.26
81230;BME280;70701;44.452;18.652;2023-07-13T05:53:57;98875.50;;;24.97;63.79
81230;BME280;70701;44.452;18.652;2023-07-13T05:56:22;98891.81;;;25.15;62.52
81230;BME280;70701;44.452;18.652;2023-07-13T05:58:49;98891.03;;;25.15;62.60
81230;BME280;70701;44.452;18.652;2023-07-13T06:01:15;98898.38;;;25.42;62.01
81230;BME280;70701;44.452;18.652;2023-07-13T06:03:41;98891.41;;;25.57;61.42
81230;BME280;70701;44.452;18.652;2023-07-13T06:06:09;98897.88;;;25.57;60.79
81230;BME280;70701;44.452;18.652;2023-07-13T06:08:35;98902.00;;;25.75;60.39
81230;BME280;70701;44.452;18.652;2023-07-13T06:11:17;98914.13;;;26.08;59.35
81230;BME280;70701;44.452;18.652;2023-07-13T06:13:43;98910.16;;;25.98;58.52
81230;BME280;70701;44.452;18.652;2023-07-13T06:16:09;98890.47;;;25.81;58.16
81230;BME280;70701;44.452;18.652;2023-07-13T06:18:36;98908.94;;;25.93;59.14
81230;BME280;70701;44.452;18.652;2023-07-13T06:21:07;98906.69;;;25.73;59.34
81230;BME280;70701;44.452;18.652;2023-07-13T06:23:33;98900.31;;;25.67;58.94
81230;BME280;70701;44.452;18.652;2023-07-13T06:25:59;98910.19;;;25.33;60.04
81230;BME280;70701;44.452;18.652;2023-07-13T06:28:57;98921.69;;;25.28;59.40
81230;BME280;70701;44.452;18.652;2023-07-13T06:31:33;98927.84;;;25.13;60.38
81230;BME280;70701;44.452;18.652;2023-07-13T06:33:59;98934.09;;;24.73;63.04
81230;BME280;70701;44.452;18.652;2023-07-13T06:36:24;98935.72;;;24.88;63.70
81230;BME280;70701;44.452;18.652;2023-07-13T06:38:50;98936.94;;;24.73;64.89
81230;BME280;70701;44.452;18.652;2023-07-13T06:41:16;98928.63;;;24.75;64.67
81230;BME280;70701;44.452;18.652;2023-07-13T06:43:42;98920.78;;;25.00;63.86
81230;BME280;70701;44.452;18.652;2023-07-13T06:46:08;98921.84;;;25.16;63.55
81230;BME280;70701;44.452;18.652;2023-07-13T06:48:33;98910.41;;;25.35;63.06
81230;BME280;70701;44.452;18.652;2023-07-13T06:50:59;98926.19;;;25.55;62.78
81230;BME280;70701;44.452;18.652;2023-07-13T06:53:25;98919.22;;;25.70;62.29
81230;BME280;70701;44.452;18.652;2023-07-13T06:55:51;98915.19;;;25.92;61.28
81230;BME280;70701;44.452;18.652;2023-07-13T06:58:17;98921.06;;;26.26;60.41
81230;BME280;70701;44.452;18.652;2023-07-13T07:00:43;98928.50;;;26.56;59.72
81230;BME280;70701;44.452;18.652;2023-07-13T07:03:09;98919.63;;;26.73;59.33
81230;BME280;70701;44.452;18.652;2023-07-13T07:05:35;98912.13;;;26.70;58.91
81230;BME280;70701;44.452;18.652;2023-07-13T07:08:01;98911.81;;;26.73;58.80
81230;BME280;70701;44.452;18.652;2023-07-13T07:10:28;98912.41;;;26.93;58.02
81230;BME280;70701;44.452;18.652;2023-07-13T07:12:54;98907.25;;;26.91;58.40
81230;BME280;70701;44.452;18.652;2023-07-13T07:15:20;98909.53;;;26.93;58.01
81230;BME280;70701;44.452;18.652;2023-07-13T07:17:45;98907.38;;;26.86;56.98
81230;BME280;70701;44.452;18.652;2023-07-13T07:20:12;98908.91;;;27.21;56.12
81230;BME280;70701;44.452;18.652;2023-07-13T07:22:38;98894.88;;;27.44;54.99
81230;BME280;70701;44.452;18.652;2023-07-13T07:25:04;98895.84;;;27.47;54.04
81230;BME280;70701;44.452;18.652;2023-07-13T07:27:30;98903.81;;;27.41;53.35
81230;BME280;70701;44.452;18.652;2023-07-13T07:29:55;98899.53;;;27.55;52.47
81230;BME280;70701;44.452;18.652;2023-07-13T07:32:23;98894.72;;;27.71;51.75
81230;BME280;70701;44.452;18.652;2023-07-13T07:34:49;98893.06;;;27.83;52.27
81230;BME280;70701;44.452;18.652;2023-07-13T07:37:14;98898.31;;;27.92;51.60
81230;BME280;70701;44.452;18.652;2023-07-13T07:39:40;98897.97;;;27.96;51.97
81230;BME280;70701;44.452;18.652;2023-07-13T07:42:06;98908.81;;;28.19;50.22
81230;BME280;70701;44.452;18.652;2023-07-13T07:44:33;98909.56;;;28.19;50.09
81230;BME280;70701;44.452;18.652;2023-07-13T07:46:59;98907.56;;;28.35;49.37
81230;BME280;70701;44.452;18.652;2023-07-13T07:49:25;98903.59;;;28.38;48.92
81230;BME280;70701;44.452;18.652;2023-07-13T07:51:51;98908.50;;;28.59;48.43
81230;BME280;70701;44.452;18.652;2023-07-13T07:54:17;98901.94;;;28.87;49.03
81230;BME280;70701;44.452;18.652;2023-07-13T07:56:42;98902.91;;;28.97;49.20
81230;BME280;70701;44.452;18.652;2023-07-13T07:59:08;98896.84;;;29.16;48.15
81230;BME280;70701;44.452;18.652;2023-07-13T08:01:34;98887.84;;;29.12;49.59
81230;BME280;70701;44.452;18.652;2023-07-13T08:04:00;98881.50;;;28.98;50.42
81230;BME280;70701;44.452;18.652;2023-07-13T08:06:26;98883.78;;;29.00;50.69
81230;BME280;70701;44.452;18.652;2023-07-13T08:08:51;98886.16;;;29.17;50.13
81230;BME280;70701;44.452;18.652;2023-07-13T08:11:17;98877.34;;;29.15;50.07
81230;BME280;70701;44.452;18.652;2023-07-13T08:13:43;98878.72;;;29.21;50.44
81230;BME280;70701;44.452;18.652;2023-07-13T08:16:09;98875.28;;;29.38;49.80
81230;BME280;70701;44.452;18.652;2023-07-13T08:18:35;98868.41;;;29.57;48.85
81230;BME280;70701;44.452;18.652;2023-07-13T08:21:07;98874.56;;;29.76;48.38
81230;BME280;70701;44.452;18.652;2023-07-13T08:23:34;98868.06;;;29.76;49.67
81230;BME280;70701;44.452;18.652;2023-07-13T08:26:00;98867.28;;;29.75;49.55
81230;BME280;70701;44.452;18.652;2023-07-13T08:28:27;98860.16;;;29.92;48.57
81230;BME280;70701;44.452;18.652;2023-07-13T08:30:53;98857.28;;;30.07;48.51
81230;BME280;70701;44.452;18.652;2023-07-13T08:33:22;98863.97;;;30.17;47.72
81230;BME280;70701;44.452;18.652;2023-07-13T08:35:52;98856.47;;;30.37;47.27
81230;BME280;70701;44.452;18.652;2023-07-13T08:38:18;98865.47;;;30.34;48.02
81230;BME280;70701;44.452;18.652;2023-07-13T08:40:52;98856.84;;;30.26;48.25
81230;BME280;70701;44.452;18.652;2023-07-13T08:43:23;98866.81;;;30.25;49.03
81230;BME280;70701;44.452;18.652;2023-07-13T08:45:54;98866.59;;;30.38;48.40
81230;BME280;70701;44.452;18.652;2023-07-13T08:48:26;98857.63;;;30.34;48.99
81230;BME280;70701;44.452;18.652;2023-07-13T08:53:49;98872.13;;;30.44;49.13
81230;BME280;70701;44.452;18.652;2023-07-13T08:56:19;98856.66;;;30.16;49.82
81230;BME280;70701;44.452;18.652;2023-07-13T08:58:50;98851.91;;;30.19;50.07
81230;BME280;70701;44.452;18.652;2023-07-13T09:04:28;98858.47;;;30.60;48.84
81230;BME280;70701;44.452;18.652;2023-07-13T09:07:05;98867.22;;;30.77;48.77
81230;BME280;70701;44.452;18.652;2023-07-13T09:14:48;98856.59;;;30.55;49.69
81230;BME280;70701;44.452;18.652;2023-07-13T09:17:29;98866.09;;;30.73;49.05
81230;BME280;70701;44.452;18.652;2023-07-13T09:20:08;98865.03;;;30.86;49.47
81230;BME280;70701;44.452;18.652;2023-07-13T09:22:37;98873.66;;;30.86;49.63
81230;BME280;70701;44.452;18.652;2023-07-13T09:27:53;98861.81;;;30.81;47.04
81230;BME280;70701;44.452;18.652;2023-07-13T09:30:23;98865.41;;;30.97;46.00
81230;BME280;70701;44.452;18.652;2023-07-13T09:32:52;98859.44;;;31.03;45.60
81230;BME280;70701;44.452;18.652;2023-07-13T09:35:26;98859.22;;;31.34;45.14
81230;BME280;70701;44.452;18.652;2023-07-13T09:38:16;98848.88;;;31.31;46.10
81230;BME280;70701;44.452;18.652;2023-07-13T09:43:38;98855.69;;;31.68;43.66
81230;BME280;70701;44.452;18.652;2023-07-13T09:46:07;98855.28;;;31.72;43.55
81230;BME280;70701;44.452;18.652;2023-07-13T09:48:45;98852.28;;;31.87;42.83
81230;BME280;70701;44.452;18.652;2023-07-13T09:51:14;98844.66;;;32.00;42.24
81230;BME280;70701;44.452;18.652;2023-07-13T09:53:46;98836.00;;;32.00;41.93
81230;BME280;70701;44.452;18.652;2023-07-13T09:56:27;98847.34;;;31.97;41.44
81230;BME280;70701;44.452;18.652;2023-07-13T09:58:53;98834.22;;;31.87;41.72
81230;BME280;70701;44.452;18.652;2023-07-13T10:01:38;98833.97;;;31.75;41.37
81230;BME280;70701;44.452;18.652;2023-07-13T10:04:13;98825.44;;;32.02;40.63
81230;BME280;70701;44.452;18.652;2023-07-13T10:06:41;98827.28;;;31.90;41.57
81230;BME280;70701;44.452;18.652;2023-07-13T10:09:09;98821.84;;;31.94;40.78
81230;BME280;70701;44.452;18.652;2023-07-13T10:11:39;98814.50;;;32.01;41.52
81230;BME280;70701;44.452;18.652;2023-07-13T10:14:16;98823.09;;;32.08;41.41
81230;BME280;70701;44.452;18.652;2023-07-13T10:16:45;98824.59;;;32.09;42.03
81230;BME280;70701;44.452;18.652;2023-07-13T10:19:29;98808.34;;;32.04;41.92
81230;BME280;70701;44.452;18.652;2023-07-13T10:22:27;98818.59;;;32.32;41.38
81230;BME280;70701;44.452;18.652;2023-07-13T10:24:55;98820.59;;;32.40;40.81
81230;BME280;70701;44.452;18.652;2023-07-13T10:27:35;98827.47;;;32.44;40.74
81230;BME280;70701;44.452;18.652;2023-07-13T10:32:37;98818.56;;;32.50;40.41
81230;BME280;70701;44.452;18.652;2023-07-13T10:35:03;98809.81;;;32.58;40.30
81230;BME280;70701;44.452;18.652;2023-07-13T10:37:42;98798.97;;;32.48;40.61
81230;BME280;70701;44.452;18.652;2023-07-13T10:40:16;98797.94;;;32.53;40.96
81230;BME280;70701;44.452;18.652;2023-07-13T10:42:46;98799.44;;;32.54;41.46
81230;BME280;70701;44.452;18.652;2023-07-13T10:45:21;98793.19;;;32.66;40.95
81230;BME280;70701;44.452;18.652;2023-07-13T10:47:50;98800.22;;;32.55;41.19
81230;BME280;70701;44.452;18.652;2023-07-13T10:50:23;98794.59;;;32.74;40.88
81230;BME280;70701;44.452;18.652;2023-07-13T10:58:42;98796.09;;;33.03;39.99
81230;BME280;70701;44.452;18.652;2023-07-13T11:01:09;98790.69;;;32.80;39.92
81230;BME280;70701;44.452;18.652;2023-07-13T11:03:49;98793.03;;;32.46;40.94
81230;BME280;70701;44.452;18.652;2023-07-13T11:06:37;98790.09;;;32.81;40.72
81230;BME280;70701;44.452;18.652;2023-07-13T11:11:48;98772.75;;;33.08;39.89
81230;BME280;70701;44.452;18.652;2023-07-13T11:16:48;98762.22;;;32.93;40.36
81230;BME280;70701;44.452;18.652;2023-07-13T11:22:02;98769.31;;;33.20;40.68
81230;BME280;70701;44.452;18.652;2023-07-13T11:24:48;98753.69;;;33.13;40.85
81230;BME280;70701;44.452;18.652;2023-07-13T11:30:25;98743.09;;;33.45;39.17
81230;BME280;70701;44.452;18.652;2023-07-13T11:35:57;98749.22;;;33.59;39.85
81230;BME280;70701;44.452;18.652;2023-07-13T11:38:40;98741.66;;;33.73;40.13
81230;BME280;70701;44.452;18.652;2023-07-13T11:41:37;98738.03;;;33.92;39.32
81230;BME280;70701;44.452;18.652;2023-07-13T11:44:16;98728.88;;;34.05;39.33
81230;BME280;70701;44.452;18.652;2023-07-13T11:46:51;98720.97;;;33.77;39.91
81230;BME280;70701;44.452;18.652;2023-07-13T11:49:19;98731.00;;;33.56;39.63
81230;BME280;70701;44.452;18.652;2023-07-13T11:51:45;98743.16;;;33.64;39.16
81230;BME280;70701;44.452;18.652;2023-07-13T11:56:49;98753.72;;;33.42;39.89
81230;BME280;70701;44.452;18.652;2023-07-13T11:59:15;98752.97;;;33.42;39.48
81230;BME280;70701;44.452;18.652;2023-07-13T12:01:44;98763.50;;;33.57;39.15
81230;BME280;70701;44.452;18.652;2023-07-13T12:04:26;98763.53;;;33.76;38.44
81230;BME280;70701;44.452;18.652;2023-07-13T12:07:12;98770.38;;;33.71;38.47
81230;BME280;70701;44.452;18.652;2023-07-13T12:09:39;98766.88;;;33.73;38.60
81230;BME280;70701;44.452;18.652;2023-07-13T12:12:16;98767.66;;;33.73;38.72
81230;BME280;70701;44.452;18.652;2023-07-13T12:14:43;98778.16;;;34.27;37.93
81230;BME280;70701;44.452;18.652;2023-07-13T12:17:15;98771.59;;;34.36;38.51
81230;BME280;70701;44.452;18.652;2023-07-13T12:19:41;98772.84;;;34.23;39.42
81230;BME280;70701;44.452;18.652;2023-07-13T12:22:12;98777.97;;;33.86;39.13
81230;BME280;70701;44.452;18.652;2023-07-13T12:24:43;98770.25;;;33.79;37.60
81230;BME280;70701;44.452;18.652;2023-07-13T12:27:22;98774.63;;;33.80;38.38
81230;BME280;70701;44.452;18.652;2023-07-13T12:29:56;98776.88;;;33.62;38.59
81230;BME280;70701;44.452;18.652;2023-07-13T12:32:24;98786.94;;;33.80;36.73
81230;BME280;70701;44.452;18.652;2023-07-13T12:35:14;98787.09;;;33.73;37.79
81230;BME280;70701;44.452;18.652;2023-07-13T12:37:45;98793.16;;;33.77;37.14
81230;BME280;70701;44.452;18.652;2023-07-13T12:40:17;98789.63;;;33.59;37.92
81230;BME280;70701;44.452;18.652;2023-07-13T12:42:49;98793.31;;;33.69;38.31
81230;BME280;70701;44.452;18.652;2023-07-13T12:45:23;98788.06;;;33.38;38.89
81230;BME280;70701;44.452;18.652;2023-07-13T12:47:58;98789.47;;;33.57;39.28
81230;BME280;70701;44.452;18.652;2023-07-13T12:50:36;98794.69;;;33.68;39.55
81230;BME280;70701;44.452;18.652;2023-07-13T12:53:04;98791.81;;;33.68;39.39
81230;BME280;70701;44.452;18.652;2023-07-13T12:55:59;98783.50;;;33.45;40.15
81230;BME280;70701;44.452;18.652;2023-07-13T12:58:46;98794.59;;;33.39;40.33
81230;BME280;70701;44.452;18.652;2023-07-13T13:01:17;98781.72;;;33.59;40.44
81230;BME280;70701;44.452;18.652;2023-07-13T13:03:48;98779.34;;;33.75;40.05
81230;BME280;70701;44.452;18.652;2023-07-13T13:08:46;98773.06;;;33.49;41.01
81230;BME280;70701;44.452;18.652;2023-07-13T13:11:12;98789.13;;;33.43;41.19
81230;BME280;70701;44.452;18.652;2023-07-13T13:13:41;98789.97;;;33.73;41.62
81230;BME280;70701;44.452;18.652;2023-07-13T13:16:35;98789.03;;;33.50;42.91
81230;BME280;70701;44.452;18.652;2023-07-13T13:19:19;98785.72;;;33.74;42.93
81230;BME280;70701;44.452;18.652;2023-07-13T13:21:48;98787.19;;;33.45;43.60
81230;BME280;70701;44.452;18.652;2023-07-13T13:24:21;98793.09;;;33.38;43.42
81230;BME280;70701;44.452;18.652;2023-07-13T13:26:48;98801.13;;;33.02;44.03
81230;BME280;70701;44.452;18.652;2023-07-13T13:29:20;98790.38;;;32.76;46.21
81230;BME280;70701;44.452;18.652;2023-07-13T13:31:50;98789.00;;;32.77;47.13
81230;BME280;70701;44.452;18.652;2023-07-13T13:34:19;98789.84;;;33.24;45.95
81230;BME280;70701;44.452;18.652;2023-07-13T13:36:47;98789.09;;;32.96;45.74
81230;BME280;70701;44.452;18.652;2023-07-13T13:39:25;98784.81;;;32.87;46.34
81230;BME280;70701;44.452;18.652;2023-07-13T13:41:53;98779.63;;;33.13;46.61
81230;BME280;70701;44.452;18.652;2023-07-13T13:44:21;98774.72;;;33.06;46.79